Time;durP1;ratioP1;P1;durP2;ratioP2;P2;SDS_P1;SDS_P2;PMS_P1;PMS_P2;Temp;Humidity;BMP_temperature;BMP_pressure;BME280_temperature;BME280_humidity;BME280_pressure;Samples;Min_cycle;Max_cycle;Signal;HPM_P1;HPM_P2
2022/10/11 00:00:00;;;;;;;11.00;10.10;;;;;;;15.22;57.51;95561.53;5080792;28;20276;-63
2022/10/11 00:02:25;;;;;;;11.50;10.07;;;;;;;15.22;57.63;95566.84;5087487;28;20243;-64
2022/10/11 00:04:51;;;;;;;12.02;10.82;;;;;;;15.17;57.36;95570.00;5081345;28;20236;-65
2022/10/11 00:07:17;;;;;;;11.75;10.55;;;;;;;15.18;57.78;95581.41;5085084;28;20207;-65
2022/10/11 00:09:43;;;;;;;11.07;9.98;;;;;;;15.10;57.58;95565.50;5083970;28;20220;-65
2022/10/11 00:12:09;;;;;;;12.70;11.40;;;;;;;15.06;58.18;95575.63;5083419;28;20223;-65
2022/10/11 00:14:34;;;;;;;14.07;11.95;;;;;;;14.93;58.63;95573.47;5084399;28;20202;-65
2022/10/11 00:17:00;;;;;;;13.40;12.10;;;;;;;14.97;58.43;95566.84;5079803;28;20279;-65
2022/10/11 00:19:25;;;;;;;13.43;12.02;;;;;;;15.03;58.34;95567.19;5085194;28;20173;-65
2022/10/11 00:21:51;;;;;;;14.30;12.73;;;;;;;14.96;58.71;95572.31;5080714;28;20188;-65
2022/10/11 00:24:16;;;;;;;13.77;12.38;;;;;;;15.00;58.47;95571.00;5078755;28;20187;-63
2022/10/11 00:26:42;;;;;;;14.85;12.65;;;;;;;15.02;58.75;95565.53;5082737;28;20188;-66
2022/10/11 00:29:08;;;;;;;16.02;13.48;;;;;;;15.05;58.50;95568.69;5087221;28;20200;-64
2022/10/11 00:31:33;;;;;;;15.43;13.13;;;;;;;14.97;58.86;95566.84;5072745;28;20241;-64
2022/10/11 00:33:59;;;;;;;15.35;13.80;;;;;;;14.96;58.97;95556.41;5087455;28;20389;-65
2022/10/11 00:36:25;;;;;;;14.50;13.20;;;;;;;14.99;58.66;95564.03;5083030;28;20192;-65
2022/10/11 00:38:50;;;;;;;14.82;13.38;;;;;;;14.99;59.04;95556.94;5083799;28;20204;-65
2022/10/11 00:41:16;;;;;;;15.85;14.13;;;;;;;14.86;59.57;95561.03;5078245;28;20192;-64
2022/10/11 00:43:43;;;;;;;18.42;14.27;;;;;;;14.87;59.70;95558.25;5083354;28;20208;-64
2022/10/11 00:46:17;;;;;;;16.02;14.52;;;;;;;14.90;59.46;95557.09;5088125;28;20192;-65
2022/10/11 00:48:43;;;;;;;19.40;14.73;;;;;;;14.87;59.64;95554.78;5076026;28;20188;-64
2022/10/11 00:51:38;;;;;;;17.38;14.70;;;;;;;14.70;60.44;95556.56;5085173;28;20257;-64
2022/10/11 00:54:06;;;;;;;16.70;15.10;;;;;;;14.74;60.39;95555.25;5084486;28;20185;-64
2022/10/11 00:56:36;;;;;;;15.82;14.23;;;;;;;14.72;60.21;95554.59;5083581;28;20185;-63
2022/10/11 00:59:07;;;;;;;16.20;14.43;;;;;;;14.60;60.56;95550.63;5086854;28;20168;-64
2022/10/11 01:01:32;;;;;;;19.10;14.73;;;;;;;14.54;60.84;95555.56;5082938;28;20220;-64
2022/10/11 01:03:58;;;;;;;16.88;15.18;;;;;;;14.61;60.75;95544.31;5079345;28;20191;-64
2022/10/11 01:06:24;;;;;;;17.13;15.35;;;;;;;14.53;61.02;95548.59;5085738;28;20222;-64
2022/10/11 01:08:51;;;;;;;16.15;14.52;;;;;;;14.55;60.92;95549.28;5084077;28;20196;-64
2022/10/11 01:11:22;;;;;;;16.23;14.77;;;;;;;14.53;61.15;95545.97;5083172;28;20207;-64
2022/10/11 01:14:20;;;;;;;18.00;15.32;;;;;;;14.50;61.39;95554.19;5089039;28;20247;-64
2022/10/11 01:16:56;;;;;;;16.98;15.48;;;;;;;14.56;61.24;95544.81;5103276;28;20188;-64
2022/10/11 01:19:55;;;;;;;17.48;15.77;;;;;;;14.53;61.31;95540.66;5085921;28;20176;-64
2022/10/11 01:22:49;;;;;;;17.58;15.82;;;;;;;14.48;61.52;95547.41;5100872;28;20566;-64
2022/10/11 01:25:33;;;;;;;17.27;15.52;;;;;;;14.47;61.50;95541.28;5082333;28;20198;-64
2022/10/11 01:28:04;;;;;;;17.48;15.10;;;;;;;14.46;61.60;95544.09;5087862;28;20192;-65
2022/10/11 01:30:33;;;;;;;16.83;15.35;;;;;;;14.43;61.63;95526.72;5088642;28;20209;-65
2022/10/11 01:33:22;;;;;;;18.23;16.60;;;;;;;14.45;61.56;95524.75;5088223;28;20192;-64
2022/10/11 01:35:59;;;;;;;18.10;16.38;;;;;;;14.40;61.51;95523.59;5086531;28;20211;-64
2022/10/11 01:38:40;;;;;;;18.67;16.92;;;;;;;14.46;61.30;95529.06;5085475;28;20286;-64
2022/10/11 01:41:12;;;;;;;19.77;17.23;;;;;;;14.43;61.47;95524.06;5090348;28;20176;-64
2022/10/11 01:43:40;;;;;;;17.95;16.13;;;;;;;14.40;61.61;95534.16;5086859;28;20226;-64
2022/10/11 01:46:09;;;;;;;17.95;16.25;;;;;;;14.27;62.07;95516.97;5082223;28;20184;-64
2022/10/11 01:48:55;;;;;;;18.65;17.02;;;;;;;14.34;61.97;95533.81;5088581;28;20180;-64
2022/10/11 01:51:26;;;;;;;19.80;17.70;;;;;;;14.31;62.10;95538.63;5091863;28;20192;-65
2022/10/11 01:53:57;;;;;;;19.90;18.00;;;;;;;14.32;62.10;95537.63;5084894;28;20185;-65
2022/10/11 01:56:47;;;;;;;20.52;18.48;;;;;;;14.26;62.13;95538.28;5078382;28;20245;-65
2022/10/11 01:59:36;;;;;;;19.17;17.38;;;;;;;14.32;62.12;95529.69;5083654;28;20237;-65
2022/10/11 02:02:11;;;;;;;19.15;17.23;;;;;;;14.26;62.10;95538.28;5090289;28;20236;-65
2022/10/11 02:04:44;;;;;;;19.88;17.98;;;;;;;14.26;62.17;95539.09;5084579;28;20188;-65
2022/10/11 02:07:20;;;;;;;19.77;17.88;;;;;;;14.31;62.09;95542.09;5086838;28;20268;-65
2022/10/11 02:09:50;;;;;;;19.20;17.20;;;;;;;14.22;62.40;95536.94;5097083;28;20291;-65
2022/10/11 02:12:29;;;;;;;19.50;17.70;;;;;;;14.16;62.19;95541.03;5085627;28;20193;-65
2022/10/11 02:14:58;;;;;;;19.65;17.65;;;;;;;14.10;62.45;95531.94;5098538;28;20276;-65
2022/10/11 02:17:31;;;;;;;20.33;18.40;;;;;;;14.23;62.46;95534.13;5084765;28;20251;-65
2022/10/11 02:20:02;;;;;;;19.77;17.70;;;;;;;14.22;62.20;95536.94;5083283;28;20180;-65
2022/10/11 02:22:32;;;;;;;20.50;18.33;;;;;;;14.14;62.35;95529.81;5088890;28;20195;-64
2022/10/11 02:25:01;;;;;;;20.80;18.88;;;;;;;14.13;62.35;95528.16;5085658;28;20349;-65
2022/10/11 02:27:32;;;;;;;20.13;18.13;;;;;;;14.07;62.62;95524.34;5090485;28;20191;-65
2022/10/11 02:30:00;;;;;;;19.33;17.40;;;;;;;14.12;62.52;95524.69;5081431;28;20224;-64
2022/10/11 02:32:28;;;;;;;22.27;18.40;;;;;;;14.05;62.82;95525.47;5085720;28;20267;-64
2022/10/11 02:34:56;;;;;;;19.83;17.88;;;;;;;14.13;62.65;95528.16;5089716;28;20191;-64
2022/10/11 02:37:31;;;;;;;21.85;19.30;;;;;;;14.12;62.66;95519.41;5086533;28;20199;-65
2022/10/11 02:40:13;;;;;;;21.33;19.33;;;;;;;14.13;62.54;95518.41;5071466;28;20183;-65
2022/10/11 02:42:44;;;;;;;20.58;18.65;;;;;;;14.05;62.73;95523.66;5082606;28;20187;-65
2022/10/11 02:45:18;;;;;;;21.73;19.52;;;;;;;14.08;62.51;95523.34;5086441;28;20185;-65
2022/10/11 02:47:44;;;;;;;21.27;19.25;;;;;;;14.17;62.61;95518.09;5084507;28;20202;-65
2022/10/11 02:50:12;;;;;;;21.33;19.33;;;;;;;14.09;62.94;95518.91;5082876;28;20209;-65
2022/10/11 02:52:37;;;;;;;20.27;18.27;;;;;;;14.09;62.55;95514.44;5085743;28;20701;-65
2022/10/11 02:55:03;;;;;;;21.90;19.02;;;;;;;14.08;62.82;95510.13;5087732;28;20188;-66
2022/10/11 02:57:29;;;;;;;21.83;19.52;;;;;;;13.97;62.79;95507.78;5085654;28;20218;-64
2022/10/11 02:59:54;;;;;;;22.52;20.17;;;;;;;14.07;62.69;95515.59;5076034;28;20180;-64
2022/10/11 03:02:19;;;;;;;21.05;18.60;;;;;;;14.04;63.39;95507.97;5084389;28;20224;-65
2022/10/11 03:04:45;;;;;;;21.35;19.15;;;;;;;14.08;62.85;95510.13;5080556;28;20188;-65
2022/10/11 03:07:10;;;;;;;22.83;20.33;;;;;;;14.10;62.88;95502.03;5087369;28;20192;-66
2022/10/11 03:09:36;;;;;;;22.20;19.98;;;;;;;14.05;63.12;95513.09;5086239;28;20204;-65
2022/10/11 03:12:01;;;;;;;21.65;19.60;;;;;;;14.01;63.32;95506.47;5088319;28;20273;-65
2022/10/11 03:14:27;;;;;;;21.13;19.00;;;;;;;14.04;63.13;95502.69;5087765;28;20271;-65
2022/10/11 03:16:52;;;;;;;21.85;19.75;;;;;;;14.03;63.16;95495.72;5085759;28;20185;-64
2022/10/11 03:19:17;;;;;;;22.85;20.55;;;;;;;14.00;63.53;95502.16;5086617;28;20279;-65
2022/10/11 03:21:43;;;;;;;21.30;19.10;;;;;;;13.90;63.89;95496.22;5081794;28;20272;-66
2022/10/11 03:24:08;;;;;;;21.23;18.92;;;;;;;13.86;63.96;95508.91;5087132;28;20275;-65
2022/10/11 03:26:34;;;;;;;21.95;19.73;;;;;;;13.92;63.77;95507.44;5083163;28;20184;-65
2022/10/11 03:28:59;;;;;;;21.55;19.27;;;;;;;13.90;63.98;95504.13;5080845;28;20204;-65
2022/10/11 03:31:25;;;;;;;22.85;20.65;;;;;;;13.83;64.38;95492.53;5084918;28;20187;-65
2022/10/11 03:33:50;;;;;;;22.10;19.80;;;;;;;13.79;64.69;95493.84;5093591;28;20215;-65
2022/10/11 03:36:16;;;;;;;21.17;19.17;;;;;;;13.83;64.22;95497.81;5083447;28;20191;-65
2022/10/11 03:38:41;;;;;;;22.35;20.02;;;;;;;13.85;64.35;95498.50;5082645;28;20207;-66
2022/10/11 03:41:07;;;;;;;23.85;21.48;;;;;;;13.86;64.27;95494.84;5083964;28;20184;-65
2022/10/11 03:43:32;;;;;;;21.95;19.15;;;;;;;13.82;64.56;95489.06;5086443;28;20222;-65
2022/10/11 03:45:59;;;;;;;20.33;18.42;;;;;;;13.85;64.48;95493.22;5081645;28;20209;-66
2022/10/11 03:48:25;;;;;;;20.73;18.63;;;;;;;13.76;64.85;95494.97;5084257;28;20203;-65
2022/10/11 03:50:51;;;;;;;20.45;18.33;;;;;;;13.79;64.99;95492.03;5079791;28;20201;-65
2022/10/11 03:53:16;;;;;;;21.23;19.02;;;;;;;13.82;64.91;95477.66;5082871;28;20276;-65
2022/10/11 03:55:41;;;;;;;21.10;19.00;;;;;;;13.88;64.97;95488.44;5092851;28;20181;-65
2022/10/11 03:58:07;;;;;;;20.83;18.33;;;;;;;13.80;65.08;95484.94;5087079;28;20185;-65
2022/10/11 04:00:34;;;;;;;20.80;18.60;;;;;;;13.82;65.00;95480.28;5083643;28;20223;-66
2022/10/11 04:02:59;;;;;;;20.83;18.73;;;;;;;13.92;64.61;95491.56;5083010;28;20185;-66
2022/10/11 04:05:25;;;;;;;21.80;19.35;;;;;;;13.92;64.68;95485.44;5083192;28;20177;-66
2022/10/11 04:07:51;;;;;;;21.63;19.38;;;;;;;13.94;64.47;95486.94;5084152;28;20195;-65
2022/10/11 04:10:17;;;;;;;21.10;18.95;;;;;;;13.87;64.79;95484.13;5086424;28;20216;-65
2022/10/11 04:12:42;;;;;;;21.08;18.67;;;;;;;13.92;64.68;95488.91;5078530;28;20236;-66
2022/10/11 04:15:11;;;;;;;21.65;19.50;;;;;;;13.89;64.80;95495.34;5081601;28;20199;-65
2022/10/11 04:17:37;;;;;;;20.25;18.13;;;;;;;13.90;64.76;95489.09;5079701;28;20187;-66
2022/10/11 04:20:03;;;;;;;20.88;18.52;;;;;;;13.89;65.23;95495.34;5079709;28;20240;-66
2022/10/11 04:22:28;;;;;;;22.55;19.63;;;;;;;13.95;64.58;95499.16;5079880;28;20248;-66
2022/10/11 04:24:54;;;;;;;20.63;18.40;;;;;;;13.88;64.80;95491.06;5086903;28;20189;-65
2022/10/11 04:27:19;;;;;;;20.88;18.77;;;;;;;13.93;64.80;95495.06;5084903;28;20180;-65
2022/10/11 04:29:45;;;;;;;20.77;18.25;;;;;;;13.96;64.61;95490.28;5089921;28;20208;-66
2022/10/11 04:32:10;;;;;;;20.67;18.48;;;;;;;13.97;64.66;95488.44;5091402;28;20187;-66
2022/10/11 04:34:36;;;;;;;20.25;18.15;;;;;;;13.93;65.00;95481.84;5087005;28;20191;-65
2022/10/11 04:37:02;;;;;;;20.60;18.50;;;;;;;13.96;65.00;95490.28;5083074;28;20198;-67
2022/10/11 04:39:27;;;;;;;23.38;19.23;;;;;;;13.95;64.65;95495.69;5084006;28;20244;-67
2022/10/11 04:41:53;;;;;;;21.98;18.45;;;;;;;13.97;64.87;95491.91;5088352;28;20186;-66
2022/10/11 04:44:18;;;;;;;22.35;18.73;;;;;;;14.02;64.60;95486.97;5083695;28;20181;-66
2022/10/11 04:46:43;;;;;;;21.05;18.75;;;;;;;13.97;64.46;95485.81;5092174;28;21180;-66
2022/10/11 04:49:09;;;;;;;20.35;17.98;;;;;;;14.00;64.70;95482.84;5091656;28;20210;-66
2022/10/11 04:51:34;;;;;;;20.88;18.67;;;;;;;14.06;64.48;95506.81;5087683;28;20185;-66
2022/10/11 04:54:00;;;;;;;21.08;18.25;;;;;;;14.03;64.59;95496.56;5083113;28;20188;-65
2022/10/11 04:56:25;;;;;;;21.75;19.52;;;;;;;13.93;65.25;95482.66;5086707;28;20183;-65
2022/10/11 04:58:53;;;;;;;21.00;18.80;;;;;;;14.06;64.94;95492.75;5084738;28;20197;-64
2022/10/11 05:01:19;;;;;;;19.88;17.77;;;;;;;14.13;64.68;95496.41;5083595;28;20224;-64
2022/10/11 05:03:45;;;;;;;19.95;17.42;;;;;;;14.08;64.53;95483.66;5082077;28;20188;-65
2022/10/11 05:06:10;;;;;;;23.25;18.73;;;;;;;14.03;64.68;95490.44;5083152;28;20280;-65
2022/10/11 05:08:36;;;;;;;19.33;17.33;;;;;;;14.01;65.04;95490.63;5090666;28;20188;-65
2022/10/11 05:11:04;;;;;;;20.45;18.35;;;;;;;14.01;64.49;95493.25;5088777;28;20183;-65
2022/10/11 05:13:31;;;;;;;22.63;18.05;;;;;;;13.94;65.06;95479.03;5084815;28;20561;-65
2022/10/11 05:15:57;;;;;;;23.98;17.88;;;;;;;14.00;64.82;95502.16;5082855;28;20204;-66
2022/10/11 05:18:22;;;;;;;19.80;16.88;;;;;;;14.01;64.96;95498.56;5089006;28;20184;-66
2022/10/11 05:20:48;;;;;;;19.00;16.27;;;;;;;14.12;64.67;95502.72;5082223;28;20180;-66
2022/10/11 05:23:14;;;;;;;19.25;17.17;;;;;;;14.13;64.39;95499.88;5088998;28;20249;-65
2022/10/11 05:25:40;;;;;;;18.75;16.77;;;;;;;14.17;64.21;95496.94;5086623;28;20189;-65
2022/10/11 05:28:06;;;;;;;18.50;16.60;;;;;;;14.15;64.27;95499.72;5084497;28;20177;-64
2022/10/11 05:30:31;;;;;;;16.25;14.57;;;;;;;14.28;63.96;95509.84;5083330;28;20227;-67
2022/10/11 05:32:57;;;;;;;21.27;15.77;;;;;;;14.33;63.99;95510.19;5082540;28;20196;-69
2022/10/11 05:35:22;;;;;;;21.52;16.17;;;;;;;14.39;63.63;95508.72;5086713;28;20199;-69
2022/10/11 05:37:47;;;;;;;17.42;15.52;;;;;;;14.35;63.50;95513.47;5083155;28;20181;-69
2022/10/11 05:40:13;;;;;;;16.95;14.50;;;;;;;14.18;63.87;95512.63;5088091;28;20177;-67
2022/10/11 05:42:38;;;;;;;18.75;15.55;;;;;;;14.12;64.15;95516.75;5083659;28;20244;-66
2022/10/11 05:45:05;;;;;;;16.10;14.40;;;;;;;14.20;63.46;95523.88;5085164;28;20256;-67
2022/10/11 05:47:31;;;;;;;15.55;13.95;;;;;;;14.29;63.21;95524.72;5081528;28;20197;-67
2022/10/11 05:49:57;;;;;;;16.48;14.10;;;;;;;14.30;63.30;95524.56;5081724;28;20196;-68
2022/10/11 05:52:22;;;;;;;16.80;14.93;;;;;;;14.48;62.53;95513.84;5082722;28;20206;-68
2022/10/11 05:54:48;;;;;;;19.00;14.60;;;;;;;14.54;62.57;95515.88;5079579;28;20199;-67
2022/10/11 05:57:14;;;;;;;16.23;14.02;;;;;;;14.56;62.42;95513.88;5082650;28;20187;-71
2022/10/11 05:59:39;;;;;;;16.52;14.90;;;;;;;14.58;62.23;95518.19;5090117;28;20191;-70
2022/10/11 06:02:05;;;;;;;15.57;13.98;;;;;;;14.71;61.78;95522.00;5085138;28;20224;-68
2022/10/11 06:04:30;;;;;;;17.30;15.45;;;;;;;14.69;61.66;95518.69;5081116;28;20212;-68
2022/10/11 06:06:56;;;;;;;16.92;14.18;;;;;;;14.81;61.73;95513.91;5086249;28;20206;-68
2022/10/11 06:09:21;;;;;;;17.63;13.98;;;;;;;14.63;61.91;95511.41;5086023;28;20205;-67
2022/10/11 06:11:47;;;;;;;16.20;14.48;;;;;;;14.57;61.98;95506.78;5085925;28;20184;-67
2022/10/11 06:14:12;;;;;;;17.48;14.73;;;;;;;14.62;62.21;95506.28;5083552;28;20214;-67
2022/10/11 06:16:38;;;;;;;19.70;15.05;;;;;;;14.65;62.46;95498.00;5087566;28;20281;-67
2022/10/11 06:19:03;;;;;;;18.17;15.73;;;;;;;14.72;61.68;95502.47;5079443;28;20195;-67
2022/10/11 06:21:29;;;;;;;17.60;15.80;;;;;;;14.72;61.92;95499.81;5080503;28;20191;-67
2022/10/11 06:23:55;;;;;;;18.40;16.30;;;;;;;14.73;61.84;95498.03;5084630;28;20184;-67
2022/10/11 06:26:20;;;;;;;24.90;18.50;;;;;;;14.70;62.62;95500.97;5088317;28;20279;-65
2022/10/11 06:28:46;;;;;;;25.65;19.58;;;;;;;14.69;63.69;95512.56;5084882;28;20261;-64
2022/10/11 06:31:12;;;;;;;24.65;20.17;;;;;;;14.72;63.88;95513.06;5085179;28;20193;-64
2022/10/11 06:33:37;;;;;;;26.63;20.33;;;;;;;14.74;64.19;95511.06;5085008;28;20219;-64
2022/10/11 06:36:06;;;;;;;26.80;20.45;;;;;;;14.70;64.64;95512.41;5082632;28;20180;-65
2022/10/11 06:38:31;;;;;;;26.58;20.90;;;;;;;14.69;64.94;95523.16;5090045;28;20176;-68
2022/10/11 06:41:07;;;;;;;25.70;20.83;;;;;;;14.66;64.89;95519.03;5085548;28;20206;-62
2022/10/11 06:43:32;;;;;;;26.55;20.52;;;;;;;14.70;64.96;95519.50;5083487;28;20191;-66
2022/10/11 06:45:58;;;;;;;28.83;22.08;;;;;;;14.76;64.96;95514.41;5082360;28;20212;-65
2022/10/11 06:48:23;;;;;;;26.45;19.95;;;;;;;14.82;64.72;95526.13;5081294;28;20307;-64
2022/10/11 06:50:49;;;;;;;26.95;20.67;;;;;;;14.80;64.77;95524.66;5086861;28;20226;-65
2022/10/11 06:53:14;;;;;;;26.50;21.00;;;;;;;14.87;64.50;95536.25;5081147;28;20190;-65
2022/10/11 06:55:40;;;;;;;23.65;20.02;;;;;;;14.91;64.40;95546.31;5088478;28;20267;-65
2022/10/11 06:58:05;;;;;;;25.05;19.20;;;;;;;14.73;65.15;95545.66;5083636;28;20206;-64
2022/10/11 07:00:30;;;;;;;22.10;19.70;;;;;;;14.87;64.57;95542.34;5083611;28;20267;-67
2022/10/11 07:02:56;;;;;;;25.20;19.98;;;;;;;14.94;64.42;95543.38;5088478;28;20184;-65
2022/10/11 07:05:21;;;;;;;24.58;18.63;;;;;;;14.96;64.57;95536.06;5081510;28;20212;-63
2022/10/11 07:07:47;;;;;;;24.55;19.27;;;;;;;14.99;63.87;95541.03;5089348;28;20176;-64
2022/10/11 07:10:12;;;;;;;23.15;19.40;;;;;;;14.92;64.34;95528.63;5086110;28;20263;-64
2022/10/11 07:12:37;;;;;;;23.77;19.20;;;;;;;14.95;64.22;95523.00;5085961;28;20177;-66
2022/10/11 07:15:03;;;;;;;26.98;19.67;;;;;;;15.07;63.60;95518.19;5085449;28;20184;-64
2022/10/11 07:17:29;;;;;;;22.70;18.35;;;;;;;15.00;63.80;95518.84;5083931;28;20216;-65
2022/10/11 07:19:54;;;;;;;21.83;17.55;;;;;;;15.16;63.52;95515.38;5080041;28;20181;-64
2022/10/11 07:22:20;;;;;;;24.83;20.10;;;;;;;15.20;63.54;95521.16;5085152;28;20180;-64
2022/10/11 07:24:47;;;;;;;24.38;18.15;;;;;;;15.38;63.18;95536.84;5088926;28;20188;-64
2022/10/11 07:27:13;;;;;;;25.13;18.20;;;;;;;15.43;62.90;95535.34;5088811;28;20240;-69
2022/10/11 07:29:38;;;;;;;24.02;17.58;;;;;;;15.34;63.45;95538.16;5084735;28;20195;-65
2022/10/11 07:32:04;;;;;;;23.00;18.85;;;;;;;15.36;63.75;95534.34;5082824;28;20184;-68
2022/10/11 07:34:30;;;;;;;21.77;17.90;;;;;;;15.41;62.76;95534.69;5081508;28;20180;-64
2022/10/11 07:36:55;;;;;;;27.30;18.83;;;;;;;15.46;62.56;95530.72;5079587;28;20215;-66
2022/10/11 07:39:21;;;;;;;22.20;17.90;;;;;;;15.31;63.39;95527.91;5089904;28;20191;-65
2022/10/11 07:41:46;;;;;;;22.75;17.20;;;;;;;15.50;62.89;95542.63;5086963;28;20196;-66
2022/10/11 07:44:12;;;;;;;24.15;18.35;;;;;;;15.58;62.89;95534.63;5085078;28;20199;-65
2022/10/11 07:46:38;;;;;;;23.50;18.05;;;;;;;15.55;62.39;95534.97;5084465;28;20196;-67
2022/10/11 07:49:03;;;;;;;18.75;16.50;;;;;;;15.62;62.11;95535.97;5087832;28;20208;-66
2022/10/11 07:51:29;;;;;;;17.80;15.68;;;;;;;15.65;61.07;95547.06;5088632;28;20192;-69
2022/10/11 07:53:55;;;;;;;19.00;17.00;;;;;;;15.67;60.47;95533.63;5085342;28;20580;-66
2022/10/11 07:56:30;;;;;;;16.88;15.07;;;;;;;15.65;59.88;95539.09;5086161;28;20184;-65
2022/10/11 07:58:58;;;;;;;21.05;15.52;;;;;;;15.45;59.81;95535.19;5078475;28;20245;-65
2022/10/11 08:01:24;;;;;;;16.83;15.02;;;;;;;15.67;59.61;95531.00;5080771;28;20320;-63
2022/10/11 08:03:50;;;;;;;18.88;15.55;;;;;;;15.67;59.66;95541.59;5100906;28;20231;-67
2022/10/11 08:06:22;;;;;;;17.00;14.95;;;;;;;15.77;58.89;95536.97;5080464;28;20227;-69
2022/10/11 08:08:48;;;;;;;17.17;15.48;;;;;;;15.84;58.95;95535.25;5082153;28;20180;-69
2022/10/11 08:11:29;;;;;;;20.02;16.65;;;;;;;15.89;59.35;95534.75;5084246;28;20189;-67
2022/10/11 08:13:54;;;;;;;22.05;17.77;;;;;;;15.95;59.52;95534.03;5086414;28;20176;-67
2022/10/11 08:16:20;;;;;;;22.38;18.08;;;;;;;15.98;60.12;95548.78;5083465;28;20185;-66
2022/10/11 08:18:46;;;;;;;22.10;18.80;;;;;;;16.07;59.88;95539.81;5081692;28;20257;-67
2022/10/11 08:21:14;;;;;;;20.85;17.90;;;;;;;16.21;59.65;95547.03;5085883;28;20208;-67
2022/10/11 08:23:40;;;;;;;23.35;16.92;;;;;;;16.24;59.58;95551.16;5098678;28;20267;-66
2022/10/11 08:26:07;;;;;;;25.58;18.48;;;;;;;16.24;59.56;95549.34;5084260;28;20304;-67
2022/10/11 08:28:32;;;;;;;24.05;17.55;;;;;;;16.36;59.33;95549.78;5086348;28;20294;-67
2022/10/11 08:30:58;;;;;;;20.40;16.13;;;;;;;16.42;58.65;95550.91;5081761;28;20330;-67
2022/10/11 08:33:25;;;;;;;20.17;16.60;;;;;;;16.59;58.50;95549.81;5086325;28;20192;-67
2022/10/11 08:35:51;;;;;;;21.02;17.58;;;;;;;16.65;57.77;95538.50;5081914;28;20179;-67
2022/10/11 08:38:18;;;;;;;19.70;16.05;;;;;;;16.57;58.37;95530.56;5083043;28;20183;-67
2022/10/11 08:40:46;;;;;;;20.00;17.50;;;;;;;16.56;58.67;95544.03;5082304;28;20570;-66
2022/10/11 08:43:17;;;;;;;20.27;15.93;;;;;;;16.73;57.85;95542.91;5084235;28;20195;-66
2022/10/11 08:45:49;;;;;;;20.45;16.10;;;;;;;16.76;57.70;95542.56;5080126;28;20265;-66
2022/10/11 08:48:18;;;;;;;20.75;16.42;;;;;;;16.81;57.47;95539.41;5081181;28;20185;-66
2022/10/11 08:50:48;;;;;;;21.75;15.75;;;;;;;16.82;57.03;95543.72;5085786;28;20219;-67
2022/10/11 08:53:35;;;;;;;19.73;16.13;;;;;;;16.88;56.76;95535.84;5084092;28;20193;-65
2022/10/11 08:56:01;;;;;;;20.42;16.85;;;;;;;16.92;56.61;95549.59;5084522;28;20172;-66
2022/10/11 08:58:56;;;;;;;18.88;16.85;;;;;;;17.00;56.32;95552.22;5081125;28;20244;-66
2022/10/11 09:01:26;;;;;;;19.80;16.17;;;;;;;17.12;56.50;95547.28;5100668;28;20227;-68
2022/10/11 09:03:52;;;;;;;17.73;15.43;;;;;;;17.23;55.49;95540.72;5079429;28;20297;-68
2022/10/11 09:06:42;;;;;;;17.73;14.88;;;;;;;17.27;55.40;95548.16;5078171;28;20207;-66
2022/10/11 09:09:20;;;;;;;16.52;14.82;;;;;;;17.29;54.79;95538.16;5078076;28;20227;-65
2022/10/11 09:11:58;;;;;;;16.95;15.13;;;;;;;17.31;55.12;95533.50;5084261;28;20570;-67
2022/10/11 09:14:45;;;;;;;15.77;14.15;;;;;;;17.56;54.37;95528.78;5085924;28;20184;-70
2022/10/11 09:17:53;;;;;;;17.40;14.48;;;;;;;17.54;54.21;95533.44;5084370;28;20176;-67
2022/10/11 09:20:37;;;;;;;18.30;14.95;;;;;;;17.58;53.95;95526.72;5088326;28;20184;-69
2022/10/11 09:23:21;;;;;;;17.05;14.70;;;;;;;17.66;53.58;95530.31;5086238;28;20271;-69
2022/10/11 09:26:14;;;;;;;15.95;14.40;;;;;;;17.58;53.58;95524.06;5091756;28;20307;-68
2022/10/11 09:28:55;;;;;;;15.63;14.00;;;;;;;17.47;53.55;95531.69;5084925;28;20275;-69
2022/10/11 09:31:22;;;;;;;16.63;14.20;;;;;;;17.35;54.32;95528.66;5084808;28;20180;-69
2022/10/11 09:33:50;;;;;;;16.85;15.13;;;;;;;17.58;53.82;95529.38;5087509;28;20184;-68
2022/10/11 09:36:27;;;;;;;17.45;15.63;;;;;;;17.70;53.97;95534.28;5082546;28;20210;-68
2022/10/11 09:39:24;;;;;;;20.10;15.65;;;;;;;17.81;53.99;95532.00;5086321;28;20203;-69
2022/10/11 09:41:50;;;;;;;17.92;16.00;;;;;;;17.99;53.52;95536.09;5075273;28;20200;-69
2022/10/11 09:44:22;;;;;;;19.98;17.70;;;;;;;18.20;52.85;95527.38;5081471;28;20280;-69
2022/10/11 09:46:49;;;;;;;19.42;17.10;;;;;;;18.33;52.24;95521.38;5079718;28;20245;-69
2022/10/11 09:49:18;;;;;;;17.58;15.82;;;;;;;18.37;51.82;95520.00;5079218;28;20277;-69
2022/10/11 09:51:52;;;;;;;17.67;15.70;;;;;;;18.64;50.97;95518.44;5081555;28;20184;-66
2022/10/11 09:54:26;;;;;;;15.93;14.38;;;;;;;18.75;51.49;95507.31;5095992;28;20213;-65
2022/10/11 09:56:51;;;;;;;19.58;16.45;;;;;;;18.95;51.01;95513.66;5084226;28;20184;-65
2022/10/11 09:59:26;;;;;;;16.92;14.98;;;;;;;19.25;49.28;95510.81;5081872;28;20195;-65
2022/10/11 10:02:15;;;;;;;17.15;15.35;;;;;;;19.29;50.50;95511.25;5079191;28;20227;-65
2022/10/11 10:04:54;;;;;;;20.58;17.08;;;;;;;19.41;49.79;95509.72;5085520;28;20181;-65
2022/10/11 10:07:20;;;;;;;20.88;16.55;;;;;;;19.51;49.51;95509.34;5077002;28;20196;-64
2022/10/11 10:09:46;;;;;;;19.00;16.10;;;;;;;19.57;49.39;95513.94;5082523;28;20204;-65
2022/10/11 10:12:14;;;;;;;17.90;15.82;;;;;;;19.57;48.88;95512.06;5079191;28;20196;-64
2022/10/11 10:14:40;;;;;;;15.57;14.05;;;;;;;19.35;49.32;95506.00;5076868;28;20266;-65
2022/10/11 10:17:14;;;;;;;17.08;14.88;;;;;;;19.46;49.70;95503.78;5085981;28;20192;-65
2022/10/11 10:19:50;;;;;;;16.98;15.20;;;;;;;19.71;50.56;95501.53;5090598;28;20259;-64
2022/10/11 10:22:28;;;;;;;18.98;15.75;;;;;;;19.81;48.61;95504.66;5083844;28;20207;-64
2022/10/11 10:24:55;;;;;;;16.40;14.70;;;;;;;20.21;47.06;95497.66;5081476;28;20193;-65
2022/10/11 10:27:29;;;;;;;19.30;15.52;;;;;;;20.53;47.09;95487.28;5082159;28;20294;-64
2022/10/11 10:30:00;;;;;;;16.55;14.60;;;;;;;19.35;48.60;95490.00;5082515;28;20295;-67
2022/10/11 10:32:33;;;;;;;16.73;14.50;;;;;;;19.98;47.79;95495.28;5083365;28;20184;-66
2022/10/11 10:35:24;;;;;;;18.52;14.85;;;;;;;19.83;47.87;95492.78;5101821;28;20180;-65
2022/10/11 10:37:55;;;;;;;17.30;15.43;;;;;;;19.64;48.48;95489.94;5093242;28;20363;-64
2022/10/11 10:40:26;;;;;;;16.33;14.73;;;;;;;20.01;47.85;95486.06;5097788;28;20176;-65
2022/10/11 10:42:52;;;;;;;18.02;15.57;;;;;;;20.60;46.47;95476.63;5078111;28;20192;-66
2022/10/11 10:45:19;;;;;;;18.33;15.63;;;;;;;21.15;45.14;95475.44;5080653;28;20598;-66
2022/10/11 10:47:56;;;;;;;17.48;15.10;;;;;;;21.62;43.58;95474.56;5081040;28;20180;-66
2022/10/11 10:50:51;;;;;;;17.52;14.63;;;;;;;21.61;42.98;95473.75;5079452;28;20208;-66
2022/10/11 10:53:39;;;;;;;16.58;14.90;;;;;;;21.55;43.40;95472.75;5074118;28;20188;-66
2022/10/11 10:56:11;;;;;;;16.75;14.95;;;;;;;21.18;44.00;95471.53;5076467;28;20188;-66
2022/10/11 10:58:58;;;;;;;16.25;14.35;;;;;;;21.94;42.62;95462.13;5084335;28;20259;-66
2022/10/11 11:01:27;;;;;;;15.40;13.80;;;;;;;22.20;41.89;95458.56;5096004;28;20223;-66
2022/10/11 11:04:21;;;;;;;15.48;14.00;;;;;;;22.00;41.98;95462.13;5081695;28;20256;-67
2022/10/11 11:07:03;;;;;;;15.35;13.85;;;;;;;22.02;42.42;95459.22;5078906;28;20199;-66
2022/10/11 11:09:49;;;;;;;16.45;14.73;;;;;;;22.07;42.33;95461.25;5093159;28;20208;-65
2022/10/11 11:12:42;;;;;;;15.70;14.20;;;;;;;22.22;41.33;95453.81;5093761;28;20187;-66
2022/10/11 11:15:29;;;;;;;16.92;15.23;;;;;;;22.15;41.63;95448.44;5084640;28;20176;-63
2022/10/11 11:18:13;;;;;;;16.27;14.63;;;;;;;21.44;42.72;95454.66;5097082;28;20219;-63
2022/10/11 11:21:10;;;;;;;16.17;14.48;;;;;;;21.40;42.79;95444.56;5093554;28;20196;-63
2022/10/11 11:23:57;;;;;;;16.63;14.93;;;;;;;21.27;42.78;95451.53;5096691;28;20203;-64
2022/10/11 11:26:43;;;;;;;16.90;15.20;;;;;;;21.40;43.08;95445.38;5095402;28;20183;-65
2022/10/11 11:29:37;;;;;;;16.70;15.10;;;;;;;21.46;43.03;95446.41;5072272;28;20188;-65